Terminal Aerodrome Forecast
Issued by NWS Melbourne, FL

Home | Current Version | Previous Version | Text Only | Print | Product List | Glossary On
Versions: 1 2 3 4 5 6 7 8 9 10 11 12 13
000
FTUS42 KMLB 301728
TAFVRB
TAF
KVRB 301728Z 3018/3118 18008KT P6SM VCTS SCT025CB BKN040
      TEMPO 3018/3020 3SM TSRA BKN020CB OVC040
     FM302100 17010KT P6SM VCSH SCT022 BKN045
     FM310000 18009KT P6SM VCSH FEW020
     FM311200 19009KT P6SM VCSH SCT025 BKN250=

USA.gov is the U.S. government's official web portal to all federal, state and local government web resources and services.